sensor_id;sensor_type;location;lat;lon;timestamp;temperature;humidity
6333;DHT22;3199;49.102;8.856;2023-03-05T00:02:23;3.60;99.90
6333;DHT22;3199;49.102;8.856;2023-03-05T00:04:49;3.60;99.90
6333;DHT22;3199;49.102;8.856;2023-03-05T00:07:14;3.60;99.90
6333;DHT22;3199;49.102;8.856;2023-03-05T00:09:40;3.60;99.90
6333;DHT22;3199;49.102;8.856;2023-03-05T00:12:05;3.60;99.90
6333;DHT22;3199;49.102;8.856;2023-03-05T00:14:31;3.60;99.90
6333;DHT22;3199;49.102;8.856;2023-03-05T00:16:57;3.60;99.90
6333;DHT22;3199;49.102;8.856;2023-03-05T00:19:22;3.50;99.90
6333;DHT22;3199;49.102;8.856;2023-03-05T00:21:48;3.50;99.90
6333;DHT22;3199;49.102;8.856;2023-03-05T00:24:16;3.50;99.90
6333;DHT22;3199;49.102;8.856;2023-03-05T00:26:43;3.50;99.90
6333;DHT22;3199;49.102;8.856;2023-03-05T00:29:13;3.50;99.90
6333;DHT22;3199;49.102;8.856;2023-03-05T00:31:39;3.50;99.90
6333;DHT22;3199;49.102;8.856;2023-03-05T00:34:07;3.50;99.90
6333;DHT22;3199;49.102;8.856;2023-03-05T00:36:37;3.60;99.90
6333;DHT22;3199;49.102;8.856;2023-03-05T00:39:03;3.60;99.90
6333;DHT22;3199;49.102;8.856;2023-03-05T00:41:28;3.60;99.90
6333;DHT22;3199;49.102;8.856;2023-03-05T00:43:54;3.60;99.90
6333;DHT22;3199;49.102;8.856;2023-03-05T00:46:20;3.60;99.90
6333;DHT22;3199;49.102;8.856;2023-03-05T00:48:47;3.60;99.90
6333;DHT22;3199;49.102;8.856;2023-03-05T00:51:13;3.60;99.90
6333;DHT22;3199;49.102;8.856;2023-03-05T00:53:38;3.60;99.90
6333;DHT22;3199;49.102;8.856;2023-03-05T00:56:04;3.60;99.90
6333;DHT22;3199;49.102;8.856;2023-03-05T00:58:30;3.70;99.90
6333;DHT22;3199;49.102;8.856;2023-03-05T01:01:00;3.70;99.90
6333;DHT22;3199;49.102;8.856;2023-03-05T01:03:27;3.70;99.90
6333;DHT22;3199;49.102;8.856;2023-03-05T01:05:53;3.70;99.90
6333;DHT22;3199;49.102;8.856;2023-03-05T01:08:18;3.70;99.90
6333;DHT22;3199;49.102;8.856;2023-03-05T01:10:44;3.70;99.90
6333;DHT22;3199;49.102;8.856;2023-03-05T01:13:10;3.70;99.90
6333;DHT22;3199;49.102;8.856;2023-03-05T01:15:35;3.60;99.90
6333;DHT22;3199;49.102;8.856;2023-03-05T01:18:01;3.60;99.90
6333;DHT22;3199;49.102;8.856;2023-03-05T01:20:26;3.60;99.90
6333;DHT22;3199;49.102;8.856;2023-03-05T01:22:52;3.50;99.90
6333;DHT22;3199;49.102;8.856;2023-03-05T01:25:18;3.60;99.90
6333;DHT22;3199;49.102;8.856;2023-03-05T01:27:44;3.60;99.90
6333;DHT22;3199;49.102;8.856;2023-03-05T01:30:12;3.50;99.90
6333;DHT22;3199;49.102;8.856;2023-03-05T01:32:38;3.60;99.90
6333;DHT22;3199;49.102;8.856;2023-03-05T01:35:05;3.60;99.90
6333;DHT22;3199;49.102;8.856;2023-03-05T01:37:30;3.60;99.90
6333;DHT22;3199;49.102;8.856;2023-03-05T01:39:56;3.60;99.90
6333;DHT22;3199;49.102;8.856;2023-03-05T01:42:22;3.60;99.90
6333;DHT22;3199;49.102;8.856;2023-03-05T01:45:05;3.60;99.90
6333;DHT22;3199;49.102;8.856;2023-03-05T01:47:31;3.50;99.90
6333;DHT22;3199;49.102;8.856;2023-03-05T01:49:57;3.50;99.90
6333;DHT22;3199;49.102;8.856;2023-03-05T01:52:24;3.50;99.90
6333;DHT22;3199;49.102;8.856;2023-03-05T01:55:03;3.50;99.90
6333;DHT22;3199;49.102;8.856;2023-03-05T01:57:53;3.50;99.90
6333;DHT22;3199;49.102;8.856;2023-03-05T02:00:28;3.50;99.90
6333;DHT22;3199;49.102;8.856;2023-03-05T02:02:55;3.50;99.90
6333;DHT22;3199;49.102;8.856;2023-03-05T02:05:31;3.50;99.90
6333;DHT22;3199;49.102;8.856;2023-03-05T02:08:03;3.50;99.90
6333;DHT22;3199;49.102;8.856;2023-03-05T02:10:33;3.50;99.90
6333;DHT22;3199;49.102;8.856;2023-03-05T02:13:01;3.50;99.90
6333;DHT22;3199;49.102;8.856;2023-03-05T02:15:28;3.50;99.90
6333;DHT22;3199;49.102;8.856;2023-03-05T02:17:54;3.50;99.90
6333;DHT22;3199;49.102;8.856;2023-03-05T02:20:22;3.50;99.90
6333;DHT22;3199;49.102;8.856;2023-03-05T02:22:49;3.50;99.90
6333;DHT22;3199;49.102;8.856;2023-03-05T02:25:22;3.50;99.90
6333;DHT22;3199;49.102;8.856;2023-03-05T02:27:56;3.50;99.90
6333;DHT22;3199;49.102;8.856;2023-03-05T02:30:24;3.50;99.90
6333;DHT22;3199;49.102;8.856;2023-03-05T02:32:49;3.60;99.90
6333;DHT22;3199;49.102;8.856;2023-03-05T02:35:15;3.60;99.90
6333;DHT22;3199;49.102;8.856;2023-03-05T02:37:41;3.60;99.90
6333;DHT22;3199;49.102;8.856;2023-03-05T02:40:08;3.60;99.90
6333;DHT22;3199;49.102;8.856;2023-03-05T02:42:35;3.60;99.90
6333;DHT22;3199;49.102;8.856;2023-03-05T02:45:01;3.60;99.90
6333;DHT22;3199;49.102;8.856;2023-03-05T02:47:27;3.60;99.90
6333;DHT22;3199;49.102;8.856;2023-03-05T02:49:53;3.60;99.90
6333;DHT22;3199;49.102;8.856;2023-03-05T02:52:19;3.50;99.90
6333;DHT22;3199;49.102;8.856;2023-03-05T02:54:47;3.50;99.90
6333;DHT22;3199;49.102;8.856;2023-03-05T02:57:13;3.50;99.90
6333;DHT22;3199;49.102;8.856;2023-03-05T02:59:39;3.50;99.90
6333;DHT22;3199;49.102;8.856;2023-03-05T03:02:04;3.50;99.90
6333;DHT22;3199;49.102;8.856;2023-03-05T03:04:30;3.50;99.90
6333;DHT22;3199;49.102;8.856;2023-03-05T03:06:55;3.50;99.90
6333;DHT22;3199;49.102;8.856;2023-03-05T03:09:21;3.50;99.90
6333;DHT22;3199;49.102;8.856;2023-03-05T03:11:46;3.50;99.90
6333;DHT22;3199;49.102;8.856;2023-03-05T03:14:12;3.50;99.90
6333;DHT22;3199;49.102;8.856;2023-03-05T03:16:37;3.40;99.90
6333;DHT22;3199;49.102;8.856;2023-03-05T03:19:03;3.40;99.90
6333;DHT22;3199;49.102;8.856;2023-03-05T03:21:28;3.40;99.90
6333;DHT22;3199;49.102;8.856;2023-03-05T03:23:54;3.40;99.90
6333;DHT22;3199;49.102;8.856;2023-03-05T03:26:19;3.40;99.90
6333;DHT22;3199;49.102;8.856;2023-03-05T03:28:45;3.30;99.90
6333;DHT22;3199;49.102;8.856;2023-03-05T03:31:11;3.30;99.90
6333;DHT22;3199;49.102;8.856;2023-03-05T03:33:37;3.20;99.90
6333;DHT22;3199;49.102;8.856;2023-03-05T03:36:03;3.30;99.90
6333;DHT22;3199;49.102;8.856;2023-03-05T03:38:29;3.20;99.90
6333;DHT22;3199;49.102;8.856;2023-03-05T03:40:55;3.30;99.90
6333;DHT22;3199;49.102;8.856;2023-03-05T03:43:20;3.30;99.90
6333;DHT22;3199;49.102;8.856;2023-03-05T03:45:46;3.30;99.90
6333;DHT22;3199;49.102;8.856;2023-03-05T03:48:12;3.30;99.90
6333;DHT22;3199;49.102;8.856;2023-03-05T03:50:39;3.30;99.90
6333;DHT22;3199;49.102;8.856;2023-03-05T03:53:05;3.30;99.90
6333;DHT22;3199;49.102;8.856;2023-03-05T03:55:31;3.30;99.90
6333;DHT22;3199;49.102;8.856;2023-03-05T03:57:56;3.30;99.90
6333;DHT22;3199;49.102;8.856;2023-03-05T04:00:22;3.40;99.90
6333;DHT22;3199;49.102;8.856;2023-03-05T04:02:48;3.40;99.90
6333;DHT22;3199;49.102;8.856;2023-03-05T04:05:13;3.40;99.90
6333;DHT22;3199;49.102;8.856;2023-03-05T04:07:39;3.40;99.90
6333;DHT22;3199;49.102;8.856;2023-03-05T04:10:05;3.40;99.90
6333;DHT22;3199;49.102;8.856;2023-03-05T04:12:30;3.40;99.90
6333;DHT22;3199;49.102;8.856;2023-03-05T04:14:56;3.40;99.90
6333;DHT22;3199;49.102;8.856;2023-03-05T04:17:21;3.40;99.90
6333;DHT22;3199;49.102;8.856;2023-03-05T04:19:47;3.40;99.90
6333;DHT22;3199;49.102;8.856;2023-03-05T04:22:14;3.40;99.90
6333;DHT22;3199;49.102;8.856;2023-03-05T04:24:40;3.40;99.90
6333;DHT22;3199;49.102;8.856;2023-03-05T04:27:06;3.40;99.90
6333;DHT22;3199;49.102;8.856;2023-03-05T04:29:32;3.40;99.90
6333;DHT22;3199;49.102;8.856;2023-03-05T04:31:58;3.40;99.90
6333;DHT22;3199;49.102;8.856;2023-03-05T04:34:23;3.50;99.90
6333;DHT22;3199;49.102;8.856;2023-03-05T04:36:49;3.40;99.90
6333;DHT22;3199;49.102;8.856;2023-03-05T04:39:15;3.40;99.90
6333;DHT22;3199;49.102;8.856;2023-03-05T04:41:40;3.40;99.90
6333;DHT22;3199;49.102;8.856;2023-03-05T04:44:06;3.40;99.90
6333;DHT22;3199;49.102;8.856;2023-03-05T04:46:32;3.40;99.90
6333;DHT22;3199;49.102;8.856;2023-03-05T04:48:57;3.40;99.90
6333;DHT22;3199;49.102;8.856;2023-03-05T04:51:23;3.40;99.90
6333;DHT22;3199;49.102;8.856;2023-03-05T04:53:48;3.40;99.90
6333;DHT22;3199;49.102;8.856;2023-03-05T04:56:14;3.40;99.90
6333;DHT22;3199;49.102;8.856;2023-03-05T04:58:39;3.30;99.90
6333;DHT22;3199;49.102;8.856;2023-03-05T05:01:05;3.40;99.90
6333;DHT22;3199;49.102;8.856;2023-03-05T05:03:32;3.40;99.90
6333;DHT22;3199;49.102;8.856;2023-03-05T05:05:58;3.40;99.90
6333;DHT22;3199;49.102;8.856;2023-03-05T05:08:24;3.40;99.90
6333;DHT22;3199;49.102;8.856;2023-03-05T05:10:57;3.40;99.90
6333;DHT22;3199;49.102;8.856;2023-03-05T05:13:23;3.40;99.90
6333;DHT22;3199;49.102;8.856;2023-03-05T05:15:49;3.50;99.90
6333;DHT22;3199;49.102;8.856;2023-03-05T05:18:15;3.40;99.90
6333;DHT22;3199;49.102;8.856;2023-03-05T05:20:40;3.50;99.90
6333;DHT22;3199;49.102;8.856;2023-03-05T05:23:06;3.50;99.90
6333;DHT22;3199;49.102;8.856;2023-03-05T05:25:32;3.50;99.90
6333;DHT22;3199;49.102;8.856;2023-03-05T05:27:57;3.50;99.90
6333;DHT22;3199;49.102;8.856;2023-03-05T05:30:23;3.40;99.90
6333;DHT22;3199;49.102;8.856;2023-03-05T05:32:48;3.40;99.90
6333;DHT22;3199;49.102;8.856;2023-03-05T05:35:14;3.40;99.90
6333;DHT22;3199;49.102;8.856;2023-03-05T05:37:39;3.40;99.90
6333;DHT22;3199;49.102;8.856;2023-03-05T05:40:05;3.40;99.90
6333;DHT22;3199;49.102;8.856;2023-03-05T05:42:33;3.40;99.90
6333;DHT22;3199;49.102;8.856;2023-03-05T05:44:59;3.40;99.90
6333;DHT22;3199;49.102;8.856;2023-03-05T05:47:24;3.40;99.90
6333;DHT22;3199;49.102;8.856;2023-03-05T05:49:50;3.40;99.90
6333;DHT22;3199;49.102;8.856;2023-03-05T05:52:15;3.40;99.90
6333;DHT22;3199;49.102;8.856;2023-03-05T05:54:41;3.40;99.90
6333;DHT22;3199;49.102;8.856;2023-03-05T05:57:07;3.50;99.90
6333;DHT22;3199;49.102;8.856;2023-03-05T05:59:32;3.50;99.90
6333;DHT22;3199;49.102;8.856;2023-03-05T06:01:58;3.40;99.90
6333;DHT22;3199;49.102;8.856;2023-03-05T06:04:23;3.40;99.90
6333;DHT22;3199;49.102;8.856;2023-03-05T06:06:49;3.30;99.90
6333;DHT22;3199;49.102;8.856;2023-03-05T06:09:15;3.30;99.90
6333;DHT22;3199;49.102;8.856;2023-03-05T06:11:41;3.30;99.90
6333;DHT22;3199;49.102;8.856;2023-03-05T06:14:06;3.30;99.90
6333;DHT22;3199;49.102;8.856;2023-03-05T06:16:33;3.30;99.90
6333;DHT22;3199;49.102;8.856;2023-03-05T06:18:59;3.30;99.90
6333;DHT22;3199;49.102;8.856;2023-03-05T06:21:29;3.30;99.90
6333;DHT22;3199;49.102;8.856;2023-03-05T06:23:55;3.30;99.90
6333;DHT22;3199;49.102;8.856;2023-03-05T06:26:23;3.30;99.90
6333;DHT22;3199;49.102;8.856;2023-03-05T06:28:49;3.30;99.90
6333;DHT22;3199;49.102;8.856;2023-03-05T06:31:17;3.40;99.90
6333;DHT22;3199;49.102;8.856;2023-03-05T06:33:43;3.30;99.90
6333;DHT22;3199;49.102;8.856;2023-03-05T06:36:12;3.40;99.90
6333;DHT22;3199;49.102;8.856;2023-03-05T06:38:38;3.30;99.90
6333;DHT22;3199;49.102;8.856;2023-03-05T06:41:10;3.40;99.90
6333;DHT22;3199;49.102;8.856;2023-03-05T06:43:37;3.40;99.90
6333;DHT22;3199;49.102;8.856;2023-03-05T06:46:05;3.40;99.90
6333;DHT22;3199;49.102;8.856;2023-03-05T06:48:31;3.50;99.90
6333;DHT22;3199;49.102;8.856;2023-03-05T06:50:56;3.50;99.90
6333;DHT22;3199;49.102;8.856;2023-03-05T06:53:23;3.50;99.90
6333;DHT22;3199;49.102;8.856;2023-03-05T06:55:49;3.50;99.90
6333;DHT22;3199;49.102;8.856;2023-03-05T06:58:15;3.50;99.90
6333;DHT22;3199;49.102;8.856;2023-03-05T07:00:41;3.50;99.90
6333;DHT22;3199;49.102;8.856;2023-03-05T07:03:07;3.50;99.90
6333;DHT22;3199;49.102;8.856;2023-03-05T07:05:32;3.50;99.90
6333;DHT22;3199;49.102;8.856;2023-03-05T07:07:58;3.50;99.90
6333;DHT22;3199;49.102;8.856;2023-03-05T07:10:24;3.50;99.90
6333;DHT22;3199;49.102;8.856;2023-03-05T07:12:49;3.50;99.90
6333;DHT22;3199;49.102;8.856;2023-03-05T07:15:14;3.50;99.90
6333;DHT22;3199;49.102;8.856;2023-03-05T07:17:40;3.60;99.90
6333;DHT22;3199;49.102;8.856;2023-03-05T07:20:06;3.60;99.90
6333;DHT22;3199;49.102;8.856;2023-03-05T07:22:32;3.60;99.90
6333;DHT22;3199;49.102;8.856;2023-03-05T07:24:57;3.60;99.90
6333;DHT22;3199;49.102;8.856;2023-03-05T07:27:23;3.60;99.90
6333;DHT22;3199;49.102;8.856;2023-03-05T07:29:50;3.60;99.90
6333;DHT22;3199;49.102;8.856;2023-03-05T07:32:15;3.60;99.90
6333;DHT22;3199;49.102;8.856;2023-03-05T07:34:41;3.60;99.90
6333;DHT22;3199;49.102;8.856;2023-03-05T07:37:06;3.60;99.90
6333;DHT22;3199;49.102;8.856;2023-03-05T07:39:32;3.60;99.90
6333;DHT22;3199;49.102;8.856;2023-03-05T07:41:57;3.60;99.90
6333;DHT22;3199;49.102;8.856;2023-03-05T07:44:23;3.70;99.90
6333;DHT22;3199;49.102;8.856;2023-03-05T07:46:48;3.70;99.90
6333;DHT22;3199;49.102;8.856;2023-03-05T07:49:14;3.70;99.90
6333;DHT22;3199;49.102;8.856;2023-03-05T07:51:39;3.80;99.90
6333;DHT22;3199;49.102;8.856;2023-03-05T07:54:06;3.90;99.90
6333;DHT22;3199;49.102;8.856;2023-03-05T07:56:33;3.90;99.90
6333;DHT22;3199;49.102;8.856;2023-03-05T07:59:07;4.00;99.90
6333;DHT22;3199;49.102;8.856;2023-03-05T08:01:35;4.00;99.90
6333;DHT22;3199;49.102;8.856;2023-03-05T08:04:02;4.00;99.90
6333;DHT22;3199;49.102;8.856;2023-03-05T08:06:28;4.10;99.90
6333;DHT22;3199;49.102;8.856;2023-03-05T08:08:54;4.30;99.90
6333;DHT22;3199;49.102;8.856;2023-03-05T08:11:20;4.90;99.90
6333;DHT22;3199;49.102;8.856;2023-03-05T08:13:45;6.20;99.90
6333;DHT22;3199;49.102;8.856;2023-03-05T08:16:18;7.10;99.90
6333;DHT22;3199;49.102;8.856;2023-03-05T08:18:45;7.20;99.90
6333;DHT22;3199;49.102;8.856;2023-03-05T08:21:22;6.80;99.70
6333;DHT22;3199;49.102;8.856;2023-03-05T08:23:51;6.40;99.90
6333;DHT22;3199;49.102;8.856;2023-03-05T08:26:19;6.00;99.90
6333;DHT22;3199;49.102;8.856;2023-03-05T08:28:45;5.80;99.90
6333;DHT22;3199;49.102;8.856;2023-03-05T08:31:12;5.50;99.90
6333;DHT22;3199;49.102;8.856;2023-03-05T08:33:39;5.30;99.90
6333;DHT22;3199;49.102;8.856;2023-03-05T08:36:05;5.10;99.90
6333;DHT22;3199;49.102;8.856;2023-03-05T08:38:31;4.90;99.90
6333;DHT22;3199;49.102;8.856;2023-03-05T08:40:57;4.80;99.90
6333;DHT22;3199;49.102;8.856;2023-03-05T08:43:22;4.70;99.90
6333;DHT22;3199;49.102;8.856;2023-03-05T08:45:48;4.70;99.90
6333;DHT22;3199;49.102;8.856;2023-03-05T08:48:15;4.70;99.90
6333;DHT22;3199;49.102;8.856;2023-03-05T08:50:41;4.70;99.90
6333;DHT22;3199;49.102;8.856;2023-03-05T08:53:06;4.70;99.90
6333;DHT22;3199;49.102;8.856;2023-03-05T08:55:32;4.80;99.90
6333;DHT22;3199;49.102;8.856;2023-03-05T08:57:58;4.90;99.90
6333;DHT22;3199;49.102;8.856;2023-03-05T09:00:24;4.80;99.90
6333;DHT22;3199;49.102;8.856;2023-03-05T09:02:49;4.80;99.90
6333;DHT22;3199;49.102;8.856;2023-03-05T09:05:15;4.80;99.90
6333;DHT22;3199;49.102;8.856;2023-03-05T09:07:41;4.90;99.90
6333;DHT22;3199;49.102;8.856;2023-03-05T09:10:08;4.90;99.90
6333;DHT22;3199;49.102;8.856;2023-03-05T09:12:36;4.90;99.90
6333;DHT22;3199;49.102;8.856;2023-03-05T09:15:03;5.30;99.90
6333;DHT22;3199;49.102;8.856;2023-03-05T09:17:29;6.50;99.90
6333;DHT22;3199;49.102;8.856;2023-03-05T09:19:54;7.10;99.90
6333;DHT22;3199;49.102;8.856;2023-03-05T09:22:20;7.10;99.90
6333;DHT22;3199;49.102;8.856;2023-03-05T09:24:45;7.10;99.90
6333;DHT22;3199;49.102;8.856;2023-03-05T09:27:11;7.00;99.90
6333;DHT22;3199;49.102;8.856;2023-03-05T09:29:36;6.90;99.90
6333;DHT22;3199;49.102;8.856;2023-03-05T09:32:02;6.70;99.90
6333;DHT22;3199;49.102;8.856;2023-03-05T09:34:28;6.60;99.90
6333;DHT22;3199;49.102;8.856;2023-03-05T09:36:53;6.50;99.90
6333;DHT22;3199;49.102;8.856;2023-03-05T09:39:19;6.60;99.90
6333;DHT22;3199;49.102;8.856;2023-03-05T09:49:57;6.70;99.90
6333;DHT22;3199;49.102;8.856;2023-03-05T09:52:38;6.80;99.90
6333;DHT22;3199;49.102;8.856;2023-03-05T09:55:16;6.80;99.90
6333;DHT22;3199;49.102;8.856;2023-03-05T09:57:48;6.90;99.90
6333;DHT22;3199;49.102;8.856;2023-03-05T10:03:03;6.60;99.90
6333;DHT22;3199;49.102;8.856;2023-03-05T10:05:49;6.60;99.90
6333;DHT22;3199;49.102;8.856;2023-03-05T10:08:21;7.40;99.90
6333;DHT22;3199;49.102;8.856;2023-03-05T10:10:50;7.70;99.90
6333;DHT22;3199;49.102;8.856;2023-03-05T10:13:29;7.80;99.60
6333;DHT22;3199;49.102;8.856;2023-03-05T10:21:39;7.60;99.70
6333;DHT22;3199;49.102;8.856;2023-03-05T10:27:11;7.60;99.30
6333;DHT22;3199;49.102;8.856;2023-03-05T10:40:54;7.20;99.70
6333;DHT22;3199;49.102;8.856;2023-03-05T10:45:52;7.10;99.30
6333;DHT22;3199;49.102;8.856;2023-03-05T10:50:59;6.80;99.20
6333;DHT22;3199;49.102;8.856;2023-03-05T10:53:30;6.80;99.70
6333;DHT22;3199;49.102;8.856;2023-03-05T10:56:00;6.80;99.70
6333;DHT22;3199;49.102;8.856;2023-03-05T10:58:26;6.70;99.80
6333;DHT22;3199;49.102;8.856;2023-03-05T11:04:01;6.90;99.90
6333;DHT22;3199;49.102;8.856;2023-03-05T11:09:15;7.80;99.90
6333;DHT22;3199;49.102;8.856;2023-03-05T11:11:42;8.40;99.90
6333;DHT22;3199;49.102;8.856;2023-03-05T11:14:25;9.00;99.00
6333;DHT22;3199;49.102;8.856;2023-03-05T11:16:55;9.60;97.40
6333;DHT22;3199;49.102;8.856;2023-03-05T11:19:32;9.60;95.00
6333;DHT22;3199;49.102;8.856;2023-03-05T11:22:18;9.20;94.10
6333;DHT22;3199;49.102;8.856;2023-03-05T11:25:15;8.90;94.10
6333;DHT22;3199;49.102;8.856;2023-03-05T11:27:51;8.40;94.60
6333;DHT22;3199;49.102;8.856;2023-03-05T11:30:28;8.10;94.70
6333;DHT22;3199;49.102;8.856;2023-03-05T11:33:09;7.90;95.00
6333;DHT22;3199;49.102;8.856;2023-03-05T11:35:37;7.70;95.30
6333;DHT22;3199;49.102;8.856;2023-03-05T11:38:06;7.50;95.40
6333;DHT22;3199;49.102;8.856;2023-03-05T11:40:33;7.30;95.90
6333;DHT22;3199;49.102;8.856;2023-03-05T11:43:00;7.00;96.60
6333;DHT22;3199;49.102;8.856;2023-03-05T11:45:29;6.80;97.20
6333;DHT22;3199;49.102;8.856;2023-03-05T11:48:11;6.70;97.70
6333;DHT22;3199;49.102;8.856;2023-03-05T11:50:40;6.60;97.90
6333;DHT22;3199;49.102;8.856;2023-03-05T11:53:11;6.50;98.30
6333;DHT22;3199;49.102;8.856;2023-03-05T11:55:45;6.50;98.80
6333;DHT22;3199;49.102;8.856;2023-03-05T12:01:00;6.60;98.20
6333;DHT22;3199;49.102;8.856;2023-03-05T12:03:31;6.60;98.20
6333;DHT22;3199;49.102;8.856;2023-03-05T12:08:44;6.30;98.50
6333;DHT22;3199;49.102;8.856;2023-03-05T12:11:23;6.30;98.70
6333;DHT22;3199;49.102;8.856;2023-03-05T12:21:55;6.20;99.10
6333;DHT22;3199;49.102;8.856;2023-03-05T12:40:18;6.30;99.90
6333;DHT22;3199;49.102;8.856;2023-03-05T12:42:57;6.30;99.80
6333;DHT22;3199;49.102;8.856;2023-03-05T12:45:26;6.30;99.80
6333;DHT22;3199;49.102;8.856;2023-03-05T12:52:57;6.30;98.50
6333;DHT22;3199;49.102;8.856;2023-03-05T12:55:29;6.30;98.20
6333;DHT22;3199;49.102;8.856;2023-03-05T12:58:30;6.20;97.80
6333;DHT22;3199;49.102;8.856;2023-03-05T13:01:06;6.20;97.80
6333;DHT22;3199;49.102;8.856;2023-03-05T13:03:51;6.20;98.10
6333;DHT22;3199;49.102;8.856;2023-03-05T13:06:32;6.10;98.20
6333;DHT22;3199;49.102;8.856;2023-03-05T13:09:11;6.10;98.20
6333;DHT22;3199;49.102;8.856;2023-03-05T13:11:38;6.10;98.20
6333;DHT22;3199;49.102;8.856;2023-03-05T13:14:27;6.10;98.30
6333;DHT22;3199;49.102;8.856;2023-03-05T13:16:54;6.00;98.10
6333;DHT22;3199;49.102;8.856;2023-03-05T13:19:20;6.00;98.30
6333;DHT22;3199;49.102;8.856;2023-03-05T13:21:59;6.00;98.50
6333;DHT22;3199;49.102;8.856;2023-03-05T13:24:25;6.00;98.40
6333;DHT22;3199;49.102;8.856;2023-03-05T13:26:51;6.10;98.40
6333;DHT22;3199;49.102;8.856;2023-03-05T13:29:22;6.10;98.20
6333;DHT22;3199;49.102;8.856;2023-03-05T13:31:54;6.00;98.10
6333;DHT22;3199;49.102;8.856;2023-03-05T13:34:27;6.00;98.40
6333;DHT22;3199;49.102;8.856;2023-03-05T13:39:33;5.90;98.40
6333;DHT22;3199;49.102;8.856;2023-03-05T13:42:13;5.80;98.50
6333;DHT22;3199;49.102;8.856;2023-03-05T13:44:39;5.70;98.70
6333;DHT22;3199;49.102;8.856;2023-03-05T13:47:20;5.70;98.90
6333;DHT22;3199;49.102;8.856;2023-03-05T13:49:46;5.70;98.90
6333;DHT22;3199;49.102;8.856;2023-03-05T13:52:22;5.70;99.00
6333;DHT22;3199;49.102;8.856;2023-03-05T13:54:48;5.70;99.10
6333;DHT22;3199;49.102;8.856;2023-03-05T13:59:58;5.70;99.10
6333;DHT22;3199;49.102;8.856;2023-03-05T14:02:26;5.80;99.20
6333;DHT22;3199;49.102;8.856;2023-03-05T14:04:51;5.80;99.20
6333;DHT22;3199;49.102;8.856;2023-03-05T14:10:02;5.90;99.50
6333;DHT22;3199;49.102;8.856;2023-03-05T14:12:35;6.00;99.10
6333;DHT22;3199;49.102;8.856;2023-03-05T14:15:15;6.00;98.80
6333;DHT22;3199;49.102;8.856;2023-03-05T14:17:44;6.00;98.80
6333;DHT22;3199;49.102;8.856;2023-03-05T14:22:41;6.00;98.80
6333;DHT22;3199;49.102;8.856;2023-03-05T14:25:34;6.00;98.90
6333;DHT22;3199;49.102;8.856;2023-03-05T14:28:20;6.00;98.80
6333;DHT22;3199;49.102;8.856;2023-03-05T14:30:52;6.00;98.60
6333;DHT22;3199;49.102;8.856;2023-03-05T14:33:28;5.90;98.60
6333;DHT22;3199;49.102;8.856;2023-03-05T14:35:55;5.90;98.80
6333;DHT22;3199;49.102;8.856;2023-03-05T14:38:27;6.00;98.80
6333;DHT22;3199;49.102;8.856;2023-03-05T14:40:54;6.10;98.90
6333;DHT22;3199;49.102;8.856;2023-03-05T14:43:19;6.10;98.70
6333;DHT22;3199;49.102;8.856;2023-03-05T14:45:45;6.10;98.40
6333;DHT22;3199;49.102;8.856;2023-03-05T14:48:14;6.10;98.70
6333;DHT22;3199;49.102;8.856;2023-03-05T14:50:45;6.00;98.60
6333;DHT22;3199;49.102;8.856;2023-03-05T14:53:36;6.00;98.60
6333;DHT22;3199;49.102;8.856;2023-03-05T14:56:02;5.90;98.60
6333;DHT22;3199;49.102;8.856;2023-03-05T14:58:30;6.00;98.90
6333;DHT22;3199;49.102;8.856;2023-03-05T15:00:57;6.00;98.80
6333;DHT22;3199;49.102;8.856;2023-03-05T15:03:23;6.00;98.60
6333;DHT22;3199;49.102;8.856;2023-03-05T15:05:52;5.90;98.60
6333;DHT22;3199;49.102;8.856;2023-03-05T15:08:24;5.90;98.60
6333;DHT22;3199;49.102;8.856;2023-03-05T15:10:50;5.90;98.80
6333;DHT22;3199;49.102;8.856;2023-03-05T15:13:16;5.90;98.70
6333;DHT22;3199;49.102;8.856;2023-03-05T15:15:42;6.00;98.60
6333;DHT22;3199;49.102;8.856;2023-03-05T15:18:13;6.00;98.70
6333;DHT22;3199;49.102;8.856;2023-03-05T15:20:39;5.90;98.80
6333;DHT22;3199;49.102;8.856;2023-03-05T15:23:05;5.90;99.10
6333;DHT22;3199;49.102;8.856;2023-03-05T15:25:31;5.80;99.40
6333;DHT22;3199;49.102;8.856;2023-03-05T15:27:57;5.70;99.50
6333;DHT22;3199;49.102;8.856;2023-03-05T15:30:25;5.70;99.70
6333;DHT22;3199;49.102;8.856;2023-03-05T15:32:53;5.80;99.80
6333;DHT22;3199;49.102;8.856;2023-03-05T15:35:19;5.80;99.70
6333;DHT22;3199;49.102;8.856;2023-03-05T15:37:45;5.80;99.50
6333;DHT22;3199;49.102;8.856;2023-03-05T15:40:11;5.70;99.30
6333;DHT22;3199;49.102;8.856;2023-03-05T15:42:37;5.70;99.10
6333;DHT22;3199;49.102;8.856;2023-03-05T15:45:03;5.60;99.00
6333;DHT22;3199;49.102;8.856;2023-03-05T15:47:28;5.60;99.10
6333;DHT22;3199;49.102;8.856;2023-03-05T15:49:54;5.60;99.20
6333;DHT22;3199;49.102;8.856;2023-03-05T15:52:19;5.60;99.40
6333;DHT22;3199;49.102;8.856;2023-03-05T15:54:45;5.50;99.40
6333;DHT22;3199;49.102;8.856;2023-03-05T15:57:11;5.50;99.60
6333;DHT22;3199;49.102;8.856;2023-03-05T15:59:37;5.50;99.50
6333;DHT22;3199;49.102;8.856;2023-03-05T16:02:04;5.50;99.50
6333;DHT22;3199;49.102;8.856;2023-03-05T16:04:29;5.50;99.50
6333;DHT22;3199;49.102;8.856;2023-03-05T16:06:57;5.50;99.50
6333;DHT22;3199;49.102;8.856;2023-03-05T16:09:25;5.50;99.50
6333;DHT22;3199;49.102;8.856;2023-03-05T16:11:54;5.50;99.40
6333;DHT22;3199;49.102;8.856;2023-03-05T16:14:23;5.50;99.30
6333;DHT22;3199;49.102;8.856;2023-03-05T16:16:49;5.50;99.30
6333;DHT22;3199;49.102;8.856;2023-03-05T16:19:16;5.60;99.30
6333;DHT22;3199;49.102;8.856;2023-03-05T16:21:43;5.50;99.30
6333;DHT22;3199;49.102;8.856;2023-03-05T16:24:09;6.20;99.90
6333;DHT22;3199;49.102;8.856;2023-03-05T16:26:38;7.70;99.90
6333;DHT22;3199;49.102;8.856;2023-03-05T16:29:04;8.90;97.20
6333;DHT22;3199;49.102;8.856;2023-03-05T16:31:31;8.80;94.20
6333;DHT22;3199;49.102;8.856;2023-03-05T16:33:59;8.30;94.20
6333;DHT22;3199;49.102;8.856;2023-03-05T16:36:27;7.80;94.80
6333;DHT22;3199;49.102;8.856;2023-03-05T16:38:54;7.40;96.00
6333;DHT22;3199;49.102;8.856;2023-03-05T16:41:20;7.00;96.40
6333;DHT22;3199;49.102;8.856;2023-03-05T16:43:48;6.70;97.20
6333;DHT22;3199;49.102;8.856;2023-03-05T16:46:14;6.40;97.90
6333;DHT22;3199;49.102;8.856;2023-03-05T16:48:44;6.20;98.70
6333;DHT22;3199;49.102;8.856;2023-03-05T16:51:11;6.00;99.10
6333;DHT22;3199;49.102;8.856;2023-03-05T16:53:38;5.80;99.40
6333;DHT22;3199;49.102;8.856;2023-03-05T16:56:05;5.70;99.70
6333;DHT22;3199;49.102;8.856;2023-03-05T16:58:32;5.50;99.90
6333;DHT22;3199;49.102;8.856;2023-03-05T17:00:59;5.50;99.90
6333;DHT22;3199;49.102;8.856;2023-03-05T17:03:25;5.30;99.90
6333;DHT22;3199;49.102;8.856;2023-03-05T17:05:52;5.30;99.90
6333;DHT22;3199;49.102;8.856;2023-03-05T17:08:18;5.20;99.90
6333;DHT22;3199;49.102;8.856;2023-03-05T17:10:44;5.20;99.90
6333;DHT22;3199;49.102;8.856;2023-03-05T17:13:10;5.20;99.90
6333;DHT22;3199;49.102;8.856;2023-03-05T17:15:35;5.20;99.90
6333;DHT22;3199;49.102;8.856;2023-03-05T17:18:01;5.20;99.90
6333;DHT22;3199;49.102;8.856;2023-03-05T17:20:27;5.20;99.90
6333;DHT22;3199;49.102;8.856;2023-03-05T17:22:52;5.10;99.90
6333;DHT22;3199;49.102;8.856;2023-03-05T17:25:18;5.10;99.90
6333;DHT22;3199;49.102;8.856;2023-03-05T17:27:45;5.00;99.90
6333;DHT22;3199;49.102;8.856;2023-03-05T17:30:12;5.00;99.90
6333;DHT22;3199;49.102;8.856;2023-03-05T17:32:38;5.00;99.90
6333;DHT22;3199;49.102;8.856;2023-03-05T17:35:06;5.00;99.90
6333;DHT22;3199;49.102;8.856;2023-03-05T17:37:31;5.10;99.90
6333;DHT22;3199;49.102;8.856;2023-03-05T17:39:57;6.10;99.90
6333;DHT22;3199;49.102;8.856;2023-03-05T17:42:22;6.30;99.90
6333;DHT22;3199;49.102;8.856;2023-03-05T17:44:48;6.10;99.90
6333;DHT22;3199;49.102;8.856;2023-03-05T17:47:14;5.90;99.90
6333;DHT22;3199;49.102;8.856;2023-03-05T17:49:40;5.70;99.90